createdAt,value
2019-03-16T00:01:56.490Z,63.47
2019-03-16T00:04:19.262Z,63.48
2019-03-16T00:06:50.747Z,63.44
2019-03-16T00:09:22.117Z,64.25
2019-03-16T00:11:53.681Z,63.96
2019-03-16T00:14:25.231Z,64.18
2019-03-16T00:16:56.995Z,64.36
2019-03-16T00:19:28.610Z,64.36
2019-03-16T00:22:00.045Z,63.99
2019-03-16T00:24:31.312Z,63.99
2019-03-16T00:27:02.524Z,64.22
2019-03-16T00:29:33.744Z,64.17
2019-03-16T00:32:13.388Z,64.17
2019-03-16T00:34:38.025Z,63.70
2019-03-16T00:37:09.961Z,63.81
2019-03-16T00:39:41.891Z,64.17
2019-03-16T00:42:13.112Z,63.69
2019-03-16T00:44:45.530Z,63.69
2019-03-16T00:47:16.809Z,63.99
2019-03-16T00:49:48.143Z,63.99
2019-03-16T00:52:19.633Z,63.68
2019-03-16T00:54:51.035Z,63.30
2019-03-16T00:57:22.242Z,63.30
2019-03-16T00:59:53.747Z,64.00
2019-03-16T01:02:27.402Z,63.88
2019-03-16T01:04:59.242Z,63.88
2019-03-16T01:07:30.940Z,64.13
2019-03-16T01:10:02.491Z,64.13
2019-03-16T01:12:33.946Z,63.88
2019-03-16T01:15:05.738Z,63.44
2019-03-16T01:17:37.381Z,63.44
2019-03-16T01:20:09.028Z,63.98
2019-03-16T01:22:40.637Z,63.98
2019-03-16T01:25:13.115Z,64.25
2019-03-16T01:27:45.807Z,63.53
2019-03-16T01:30:17.653Z,63.26
2019-03-16T01:32:49.452Z,63.26
2019-03-16T01:35:20.902Z,62.77
2019-03-16T01:37:52.139Z,62.54
2019-03-16T01:40:23.403Z,62.56
2019-03-16T01:42:54.869Z,62.10
2019-03-16T01:45:26.067Z,62.03
2019-03-16T01:47:57.452Z,61.37
2019-03-16T01:50:29.009Z,61.70
2019-03-16T01:53:00.413Z,61.63
2019-03-16T01:55:31.663Z,61.32
2019-03-16T01:58:02.982Z,61.32
2019-03-16T02:00:35.005Z,60.83
2019-03-16T02:03:06.430Z,60.83
2019-03-16T02:05:38.008Z,55.98
2019-03-16T02:08:09.378Z,55.36
2019-03-16T02:10:40.844Z,55.59
2019-03-16T02:13:13.327Z,55.59
2019-03-16T02:15:44.886Z,55.08
2019-03-16T02:18:16.185Z,55.08
2019-03-16T02:20:47.408Z,54.62
2019-03-16T02:23:18.863Z,54.52
2019-03-16T02:25:50.057Z,54.30
2019-03-16T02:28:21.693Z,54.51
2019-03-16T02:30:53.374Z,54.31
2019-03-16T02:33:24.686Z,54.11
2019-03-16T02:35:55.965Z,55.33
2019-03-16T02:38:27.557Z,54.73
2019-03-16T02:40:58.949Z,54.73
2019-03-16T02:43:30.439Z,54.53
2019-03-16T02:46:01.853Z,55.89
2019-03-16T02:48:33.366Z,54.72
2019-03-16T02:51:04.774Z,54.21
2019-03-16T02:53:37.198Z,57.47
2019-03-16T02:56:08.880Z,57.47
2019-03-16T02:58:40.267Z,58.01
2019-03-16T03:01:12.005Z,57.64
2019-03-16T03:03:43.301Z,56.92
2019-03-16T03:06:14.579Z,56.92
2019-03-16T03:08:45.907Z,56.87
2019-03-16T03:11:17.365Z,57.05
2019-03-16T03:13:48.716Z,57.05
2019-03-16T03:16:20.271Z,57.36
2019-03-16T03:18:51.931Z,57.36
2019-03-16T03:21:23.219Z,57.30
2019-03-16T03:23:54.833Z,56.03
2019-03-16T03:26:26.371Z,56.22
2019-03-16T03:28:57.975Z,56.22
2019-03-16T03:31:29.369Z,56.17
2019-03-16T03:34:02.807Z,56.17
2019-03-16T03:36:34.988Z,56.32
2019-03-16T03:39:08.393Z,56.32
2019-03-16T03:41:40.259Z,56.65
2019-03-16T03:44:12.007Z,56.02
2019-03-16T03:46:43.842Z,56.13
2019-03-16T03:49:15.567Z,56.13
2019-03-16T03:51:47.132Z,55.46
2019-03-16T03:54:18.998Z,55.05
2019-03-16T03:56:50.908Z,53.68
2019-03-16T03:59:23.153Z,53.68
2019-03-16T04:01:54.999Z,53.88
2019-03-16T04:04:27.056Z,53.88
2019-03-16T04:06:58.447Z,52.50
2019-03-16T04:09:30.219Z,51.34
2019-03-16T04:12:01.651Z,51.34
2019-03-16T04:14:33.268Z,51.31
2019-03-16T04:17:04.983Z,51.27
2019-03-16T04:19:38.297Z,52.87
2019-03-16T04:22:10.027Z,52.87
2019-03-16T04:24:45.147Z,50.96
2019-03-16T04:27:16.302Z,51.77
2019-03-16T04:29:48.084Z,52.74
2019-03-16T04:32:21.428Z,52.74
2019-03-16T04:34:52.800Z,52.91
2019-03-16T04:37:27.151Z,51.45
2019-03-16T04:39:58.717Z,51.42
2019-03-16T04:42:30.039Z,50.88
2019-03-16T04:45:01.402Z,51.26
2019-03-16T04:47:34.546Z,49.04
2019-03-16T04:50:06.059Z,49.04
2019-03-16T04:52:37.459Z,47.85
2019-03-16T04:55:08.751Z,48.43
2019-03-16T04:57:40.460Z,49.71
2019-03-16T05:00:12.415Z,49.71
2019-03-16T05:02:44.053Z,50.14
2019-03-16T05:05:16.331Z,46.91
2019-03-16T05:07:47.715Z,46.91
2019-03-16T05:10:19.040Z,47.61
2019-03-16T05:12:51.714Z,48.82
2019-03-16T05:15:23.198Z,46.90
2019-03-16T05:17:54.732Z,45.82
2019-03-16T05:20:26.501Z,45.82
2019-03-16T05:22:57.881Z,47.23
2019-03-16T05:25:29.204Z,47.23
2019-03-16T05:28:00.467Z,46.28
2019-03-16T05:30:31.996Z,42.35
2019-03-16T05:33:03.638Z,46.30
2019-03-16T05:35:35.911Z,46.30
2019-03-16T05:38:07.388Z,45.63
2019-03-16T05:40:38.781Z,45.63
2019-03-16T05:43:10.281Z,45.57
2019-03-16T05:45:41.569Z,44.64
2019-03-16T05:48:13.021Z,44.64
2019-03-16T05:50:44.532Z,44.59
2019-03-16T05:53:15.878Z,43.27
2019-03-16T05:55:48.045Z,42.89
2019-03-16T05:58:19.312Z,44.11
2019-03-16T06:00:52.140Z,41.87
2019-03-16T06:03:24.221Z,42.64
2019-03-16T06:05:56.195Z,42.64
2019-03-16T06:08:27.542Z,41.51
2019-03-16T06:10:59.715Z,41.77
2019-03-16T06:13:31.889Z,42.64
2019-03-16T06:16:05.003Z,41.79
2019-03-16T06:18:36.918Z,38.31
2019-03-16T06:21:08.801Z,33.89
2019-03-16T06:23:40.104Z,37.23
2019-03-16T06:26:12.563Z,37.23
2019-03-16T06:28:50.117Z,38.38
2019-03-16T06:31:21.858Z,38.24
2019-03-16T06:33:53.544Z,36.87
2019-03-16T06:36:25.324Z,36.64
2019-03-16T06:38:57.121Z,36.64
2019-03-16T06:41:28.825Z,40.82
2019-03-16T06:44:00.323Z,40.82
2019-03-16T06:46:31.731Z,37.73
2019-03-16T06:49:03.441Z,38.10
2019-03-16T06:51:35.102Z,38.10
2019-03-16T06:54:06.964Z,33.65
2019-03-16T06:56:39.635Z,33.11
2019-03-16T06:59:11.548Z,33.11
2019-03-16T07:01:43.256Z,35.23
2019-03-16T07:04:14.762Z,33.51
2019-03-16T07:06:46.705Z,36.17
2019-03-16T07:09:18.560Z,37.76
2019-03-16T07:11:50.340Z,37.76
2019-03-16T07:14:22.124Z,37.11
2019-03-16T07:17:02.043Z,38.72
2019-03-16T07:19:27.009Z,38.72
2019-03-16T07:21:58.723Z,38.94
2019-03-16T07:24:30.438Z,38.94
2019-03-16T07:27:07.867Z,35.67
2019-03-16T07:29:41.278Z,35.67
2019-03-16T07:32:13.608Z,34.91
2019-03-16T07:34:46.473Z,33.59
2019-03-16T07:37:19.949Z,33.59
2019-03-16T07:39:51.573Z,33.42
2019-03-16T07:42:23.527Z,35.11
2019-03-16T07:45:07.625Z,35.95
2019-03-16T07:47:28.711Z,36.05
2019-03-16T07:50:00.676Z,36.05
2019-03-16T07:52:32.310Z,33.75
2019-03-16T07:55:04.401Z,34.84
2019-03-16T07:57:40.376Z,36.06
2019-03-16T08:00:10.310Z,34.93
2019-03-16T08:02:42.173Z,34.93
2019-03-16T08:05:18.783Z,35.54
2019-03-16T08:07:48.029Z,35.52
2019-03-16T08:10:19.870Z,34.87
2019-03-16T08:12:52.473Z,34.87
2019-03-16T08:15:28.146Z,33.35
2019-03-16T08:18:01.770Z,33.35
2019-03-16T08:20:35.486Z,32.69
2019-03-16T08:23:09.787Z,33.00
2019-03-16T08:25:42.168Z,31.44
2019-03-16T08:28:16.434Z,31.66
2019-03-16T08:30:48.958Z,31.83
2019-03-16T08:33:20.732Z,31.84
2019-03-16T08:35:52.264Z,31.95
2019-03-16T08:38:23.933Z,32.80
2019-03-16T08:40:55.834Z,32.15
2019-03-16T08:43:28.259Z,32.15
2019-03-16T08:46:00.338Z,30.83
2019-03-16T08:48:32.045Z,30.83
2019-03-16T08:51:04.013Z,31.75
2019-03-16T08:53:36.055Z,31.75
2019-03-16T08:56:08.063Z,31.59
2019-03-16T08:58:39.678Z,31.99
2019-03-16T09:01:12.481Z,31.99
2019-03-16T09:03:44.968Z,32.51
2019-03-16T09:06:17.738Z,31.77
2019-03-16T09:08:50.668Z,32.58
2019-03-16T09:11:22.806Z,32.58
2019-03-16T09:13:56.059Z,31.75
2019-03-16T09:16:29.197Z,32.01
2019-03-16T09:19:02.275Z,32.86
2019-03-16T09:21:35.111Z,29.85
2019-03-16T09:24:07.137Z,29.85
2019-03-16T09:26:39.003Z,29.77
2019-03-16T09:29:15.112Z,30.88
2019-03-16T09:31:44.771Z,32.40
2019-03-16T09:34:16.681Z,32.58
2019-03-16T09:36:48.789Z,32.12
2019-03-16T09:39:20.371Z,32.08
2019-03-16T09:41:52.308Z,31.14
2019-03-16T09:44:23.822Z,31.03
2019-03-16T09:46:55.795Z,31.03
2019-03-16T09:49:27.645Z,31.81
2019-03-16T09:52:00.055Z,32.43
2019-03-16T09:54:32.331Z,33.03
2019-03-16T09:57:04.639Z,33.03
2019-03-16T09:59:39.066Z,32.34
2019-03-16T10:02:11.013Z,32.39
2019-03-16T10:04:43.497Z,32.78
2019-03-16T10:07:16.134Z,32.92
2019-03-16T10:09:48.159Z,33.55
2019-03-16T10:12:20.497Z,32.44
2019-03-16T10:14:53.855Z,32.44
2019-03-16T10:17:30.084Z,32.99
2019-03-16T10:20:05.308Z,32.94
2019-03-16T10:22:38.543Z,31.53
2019-03-16T10:25:35.099Z,31.53
2019-03-16T10:28:08.257Z,32.21
2019-03-16T10:30:41.858Z,31.90
2019-03-16T10:33:14.548Z,33.06
2019-03-16T10:35:48.083Z,32.87
2019-03-16T10:38:22.056Z,33.52
2019-03-16T10:40:55.369Z,32.34
2019-03-16T10:43:27.762Z,33.15
2019-03-16T10:45:59.664Z,33.58
2019-03-16T10:48:31.576Z,32.91
2019-03-16T10:51:03.397Z,33.66
2019-03-16T10:53:35.395Z,34.35
2019-03-16T10:56:08.237Z,34.28
2019-03-16T10:58:40.546Z,34.06
2019-03-16T11:01:12.412Z,34.06
2019-03-16T11:03:45.112Z,33.52
2019-03-16T11:06:17.647Z,33.86
2019-03-16T11:08:50.070Z,33.86
2019-03-16T11:11:22.507Z,33.49
2019-03-16T11:13:55.098Z,33.67
2019-03-16T11:16:27.473Z,32.31
2019-03-16T11:18:59.834Z,31.75
2019-03-16T11:21:32.010Z,31.75
2019-03-16T11:24:04.186Z,32.09
2019-03-16T11:26:38.065Z,32.78
2019-03-16T11:29:10.835Z,33.06
2019-03-16T11:31:42.903Z,32.83
2019-03-16T11:34:15.875Z,32.14
2019-03-16T11:36:48.398Z,32.23
2019-03-16T11:39:20.727Z,32.23
2019-03-16T11:41:52.844Z,32.06
2019-03-16T11:44:25.775Z,32.22
2019-03-16T11:46:58.353Z,32.22
2019-03-16T11:49:30.149Z,32.46
2019-03-16T11:52:02.232Z,31.74
2019-03-16T11:54:35.142Z,30.16
2019-03-16T11:57:06.751Z,30.16
2019-03-16T11:59:38.816Z,30.14
2019-03-16T12:02:10.429Z,30.60
2019-03-16T12:04:42.187Z,32.05
2019-03-16T12:07:14.716Z,32.05
2019-03-16T12:09:47.138Z,33.69
2019-03-16T12:12:18.983Z,33.69
2019-03-16T12:14:50.826Z,33.97
2019-03-16T12:17:22.286Z,34.55
2019-03-16T12:19:54.783Z,35.33
2019-03-16T12:22:27.130Z,35.27
2019-03-16T12:24:59.460Z,35.08
2019-03-16T12:27:31.324Z,35.66
2019-03-16T12:30:03.686Z,36.02
2019-03-16T12:32:36.187Z,35.75
2019-03-16T12:35:09.710Z,35.85
2019-03-16T12:37:42.173Z,36.16
2019-03-16T12:40:14.898Z,36.09
2019-03-16T12:42:47.403Z,35.74
2019-03-16T12:45:20.743Z,35.74
2019-03-16T12:47:54.613Z,36.54
2019-03-16T12:50:27.828Z,35.76
2019-03-16T12:52:59.973Z,36.43
2019-03-16T12:55:33.479Z,36.43
2019-03-16T12:58:13.254Z,36.64
2019-03-16T13:00:45.016Z,37.71
2019-03-16T13:03:16.763Z,37.71
2019-03-16T13:05:48.441Z,38.10
2019-03-16T13:08:20.226Z,38.39
2019-03-16T13:10:52.943Z,38.88
2019-03-16T13:13:25.361Z,38.88
2019-03-16T13:15:56.975Z,39.55
2019-03-16T13:18:28.671Z,39.55
2019-03-16T13:21:00.304Z,40.34
2019-03-16T13:23:31.797Z,40.13
2019-03-16T13:26:03.801Z,40.13
2019-03-16T13:28:36.474Z,40.38
2019-03-16T13:31:08.839Z,40.38
2019-03-16T13:33:40.732Z,40.53
2019-03-16T13:36:13.224Z,41.05
2019-03-16T13:38:45.528Z,41.05
2019-03-16T13:41:17.911Z,40.68
2019-03-16T13:43:49.979Z,40.59
2019-03-16T13:46:21.388Z,40.59
2019-03-16T13:48:53.051Z,40.56
2019-03-16T13:51:24.845Z,40.51
2019-03-16T13:53:56.933Z,40.29
2019-03-16T13:56:28.805Z,40.32
2019-03-16T13:59:00.888Z,40.56
2019-03-16T14:01:32.794Z,40.69
2019-03-16T14:04:05.312Z,40.78
2019-03-16T14:06:37.782Z,41.18
2019-03-16T14:09:10.062Z,40.67
2019-03-16T14:11:42.046Z,40.67
2019-03-16T14:14:13.428Z,41.25
2019-03-16T14:16:45.024Z,40.83
2019-03-16T14:19:16.919Z,41.19
2019-03-16T14:21:48.730Z,41.39
2019-03-16T14:24:21.195Z,41.30
2019-03-16T14:26:52.740Z,41.30
2019-03-16T14:29:24.391Z,41.60
2019-03-16T14:31:56.171Z,41.60
2019-03-16T14:34:28.357Z,41.74
2019-03-16T14:37:01.514Z,42.30
2019-03-16T14:39:33.216Z,42.30
2019-03-16T14:42:05.107Z,42.69
2019-03-16T14:44:36.472Z,43.28
2019-03-16T14:47:09.035Z,43.77
2019-03-16T14:49:41.037Z,44.03
2019-03-16T14:52:12.747Z,44.03
2019-03-16T14:54:44.967Z,43.57
2019-03-16T14:57:16.663Z,43.46
2019-03-16T14:59:48.206Z,43.46
2019-03-16T15:02:20.201Z,43.56
2019-03-16T15:04:52.056Z,44.23
2019-03-16T15:07:23.709Z,43.40
2019-03-16T15:09:55.354Z,43.65
2019-03-16T15:12:26.803Z,43.21
2019-03-16T15:14:58.165Z,44.61
2019-03-16T15:17:29.776Z,44.61
2019-03-16T15:20:01.236Z,45.25
2019-03-16T15:22:33.113Z,45.69
2019-03-16T15:25:05.044Z,46.56
2019-03-16T15:27:36.897Z,46.56
2019-03-16T15:30:10.421Z,46.08
2019-03-16T15:32:41.974Z,46.30
2019-03-16T15:35:14.232Z,46.01
2019-03-16T15:37:45.883Z,46.25
2019-03-16T15:40:17.463Z,46.22
2019-03-16T15:42:49.087Z,46.55
2019-03-16T15:45:21.955Z,47.15
2019-03-16T15:47:53.586Z,46.88
2019-03-16T15:50:25.098Z,46.88
2019-03-16T15:52:56.452Z,47.18
2019-03-16T15:55:28.214Z,47.58
2019-03-16T15:58:07.907Z,47.80
2019-03-16T16:00:33.163Z,47.80
